Les Masies de Roda





Hora UTC 21:10
Temperatura 20.9 ºC
Sòl 15 cm 20.0 ºC
Subsòl 10 cm 23.0 ºC
Humitat 81.0 %
Pressió 1014.4 hPa
Pluja 0.1 mm
Velocitat vent 0.0 km/h
Direcció vent NNE
Radiació solar 0.1 W/m²

Dades diàries 2020-08-03



Hora UTC (hivern +1h; estiu +2h)
Temperatura (ºC) Humitat (%) Pressió (hPa) Velocitat vent (km/h) Precipitació (mm) Radiació solar (W/m²)
Hora UTC Aire Sòl 15 cm Subsòl 10 cm Humitat Pressió Vel. Dir. Vel. Max Dir. Intent. màx 5 min. Rad. Sol.
00:05 22.5 20.7 23.5 80.2 1013.8 0.0 NNE 0.0 NNW 0.0 0.1
00:10 22.3 20.4 23.3 81.1 1013.8 0.0 NNE 0.0 N 0.0 0.1
00:15 22.1 20.2 23.2 81.9 1013.8 0.0 NNE 0.0 N 0.0 0.1
00:20 21.9 20.0 23.1 81.5 1013.8 0.0 NNE 0.0 N 0.0 0.1
00:25 21.9 20.0 23.1 80.9 1013.8 0.0 NNE 0.0 E 0.0 0.1
00:30 21.8 20.0 23.2 82.7 1013.9 1.2 N 11.5 NNW 0.0 0.1
00:35 21.9 20.1 23.2 81.8 1013.9 4.5 NNW 8.8 WNW 0.0 0.1
00:40 22.0 20.3 23.3 79.8 1013.9 4.0 NW 11.5 NW 0.0 0.1
00:45 22.1 20.4 23.3 75.2 1013.9 5.8 NNW 11.5 NW 0.0 0.1
00:50 22.0 20.4 23.2 73.0 1013.9 5.6 NW 8.8 NW 0.0 0.1
00:55 22.1 20.4 23.2 67.5 1013.9 6.6 WNW 11.5 WNW 0.0 0.1
01:00 22.1 20.4 23.1 64.5 1013.9 5.6 NW 11.5 WNW 0.0 0.1
01:05 22.1 20.4 23.2 64.4 1013.8 3.0 NW 8.8 NNW 0.0 0.1
01:10 22.1 20.4 23.1 63.8 1013.8 2.0 NNW 8.8 NW 0.0 0.1
01:15 22.1 20.4 23.1 63.3 1013.6 0.7 NW 6.1 NW 0.0 0.1
01:20 22.1 20.3 23.1 62.1 1013.6 3.2 NNW 8.8 NW 0.0 0.1
01:25 22.1 20.3 23.0 61.8 1013.4 4.1 WNW 8.8 NNW 0.0 0.1
01:30 22.0 20.1 22.9 62.2 1013.4 0.2 W 6.1 W 0.0 0.1
01:35 21.9 19.9 22.8 61.7 1013.2 0.0 NNE 0.0 WNW 0.0 0.1
01:40 21.7 19.7 22.7 61.5 1013.2 1.1 W 3.4 WSW 0.0 0.1
01:45 21.7 19.5 22.6 60.9 1013.2 4.1 SW 8.8 SW 0.0 0.1
01:50 21.7 19.3 22.5 59.9 1013.3 6.1 SW 8.8 SW 0.0 0.1
01:55 21.6 19.3 22.4 60.4 1013.4 6.7 WSW 14.2 WSW 0.0 0.1
02:00 21.6 19.4 22.4 58.9 1013.5 8.3 WSW 14.2 SW 0.0 0.1
02:05 21.5 19.5 22.4 59.0 1013.4 6.6 SW 11.5 SW 0.0 0.1
02:10 21.5 19.5 22.4 58.8 1013.4 5.2 WSW 11.5 SW 0.0 0.1
02:15 21.5 19.5 22.4 59.2 1013.3 5.7 SW 8.8 SW 0.0 0.1
02:20 21.5 19.5 22.4 58.8 1013.2 6.9 SSW 14.2 SW 0.0 0.1
02:25 21.4 19.5 22.3 58.9 1013.3 6.8 SSW 11.5 SW 0.0 0.1
02:30 21.3 19.5 22.3 59.1 1013.4 8.5 SW 14.2 SW 0.0 0.1
02:35 21.1 19.4 22.2 60.2 1013.6 5.6 WSW 11.5 WSW 0.0 0.1
02:40 20.9 19.3 22.1 60.8 1013.6 7.5 W 14.2 WSW 0.0 0.1
02:45 20.8 19.2 22.0 61.4 1013.7 5.8 W 11.5 W 0.0 0.1
02:50 20.7 19.1 22.0 62.6 1013.7 3.5 W 8.8 WSW 0.0 0.1
02:55 20.5 19.0 22.0 63.9 1013.6 4.9 SW 14.2 SW 0.0 0.1
03:00 20.4 18.7 21.8 64.0 1013.3 8.3 SSW 14.2 SW 0.0 0.1
03:05 20.2 18.2 21.4 66.9 1013.3 5.2 SW 8.8 SW 0.0 0.1
03:10 19.8 17.7 21.0 69.5 1013.6 8.4 W 14.2 WSW 0.0 0.1
03:15 19.3 17.2 20.8 71.5 1013.7 8.3 W 14.2 WSW 0.0 0.1
03:20 19.0 16.9 20.7 72.6 1013.6 6.2 W 11.5 W 0.0 0.1
03:25 18.9 16.7 20.7 73.5 1013.6 2.9 WSW 8.8 SW 0.0 0.1
03:30 18.9 16.6 20.7 73.8 1013.6 4.4 SW 8.8 W 0.0 0.1
03:35 18.8 16.6 20.7 74.5 1013.9 2.6 WNW 6.1 W 0.0 0.1
03:40 18.7 16.6 20.7 74.9 1013.9 4.9 WSW 8.8 WSW 0.1 0.1
03:45 18.7 16.5 20.7 75.4 1013.9 4.3 SW 8.8 SW 0.0 0.1
03:50 18.7 16.5 20.6 75.2 1013.9 2.7 WSW 8.8 WNW 0.0 0.1
03:55 18.7 16.4 20.5 73.5 1013.7 6.2 SSW 11.5 SW 0.0 0.1
04:00 18.7 16.4 20.4 73.8 1013.6 2.4 SSW 8.8 SSW 0.0 0.1
04:05 18.7 16.4 20.4 73.2 1013.7 1.3 SSW 6.1 SSW 0.0 0.1
04:10 18.6 16.3 20.4 73.6 1013.6 0.2 S 3.4 SE 0.0 0.1
04:15 18.6 16.3 20.4 73.9 1013.3 2.0 NNW 6.1 NNW 0.0 0.1
04:20 18.4 16.2 20.3 76.6 1013.4 4.3 NW 6.1 NNW 0.0 0.1
04:25 18.2 16.2 20.2 77.5 1013.4 4.7 WNW 8.8 WNW 0.0 0.1
04:30 18.1 16.1 20.2 77.4 1013.7 6.0 W 11.5 WSW 0.0 0.1
04:35 18.1 16.0 20.1 76.2 1013.6 6.2 SSW 8.8 SSW 0.0 0.2
04:40 18.2 15.9 20.0 75.9 1013.7 0.2 SW 6.1 SW 0.0 0.3
04:45 18.1 15.9 19.9 74.8 1013.6 0.0 NNE 0.0 W 0.0 0.5
04:50 18.1 15.9 19.9 74.8 1013.6 0.1 SW 3.4 SW 0.0 0.7
04:55 18.1 15.9 19.9 74.3 1013.4 0.0 NNE 0.0 WSW 0.0 1.1
05:00 18.2 15.8 19.9 73.4 1013.3 2.0 SSW 8.8 SSW 0.0 2.4
05:05 18.2 15.9 19.8 74.6 1013.5 5.2 W 8.8 WNW 0.0 4.3
05:10 18.1 15.9 19.8 75.4 1013.3 0.3 W 3.4 WNW 0.0 6.7
05:15 18.0 16.0 19.8 75.6 1013.5 0.1 WNW 3.4 WNW 0.0 9.9
05:20 17.9 16.0 19.8 77.3 1013.6 2.7 NW 6.1 WNW 0.0 12.4
05:25 17.8 16.0 19.9 77.5 1013.6 1.7 WNW 6.1 NW 0.0 12.3
05:30 17.8 16.0 19.9 76.7 1013.7 3.4 NW 14.2 WNW 0.0 12.7
05:35 17.9 16.0 19.8 75.1 1013.3 4.8 ENE 11.5 NNW 0.0 13.8
05:40 18.0 16.1 19.7 76.3 1013.3 3.6 NNW 8.8 NNW 0.0 15.8
05:45 17.9 16.2 19.8 76.9 1013.4 1.0 WNW 3.4 NNW 0.0 16.8
05:50 17.9 16.4 19.9 77.2 1013.5 0.3 WSW 3.4 W 0.0 19.0
05:55 17.9 16.5 20.0 78.0 1013.6 0.0 NNE 0.0 SW 0.0 25.4
06:00 18.0 16.7 20.1 76.7 1013.7 0.0 N 3.4 N 0.0 32.1
06:05 18.0 16.7 20.1 77.6 1013.7 0.0 NNE 0.0 NNW 0.0 38.1
06:10 18.0 16.7 20.2 76.3 1013.8 1.9 WSW 6.1 WSW 0.0 44.7
06:15 18.1 16.8 20.2 75.2 1013.7 0.0 W 3.4 W 0.0 48.9
06:20 18.1 17.0 20.3 75.7 1013.8 2.1 WSW 6.1 WSW 0.0 52.1
06:25 18.2 17.0 20.3 75.8 1013.8 2.8 SW 8.8 SW 0.0 68.5
06:30 18.2 17.0 20.4 77.1 1013.8 1.0 W 3.4 WSW 0.0 94.8
06:35 18.3 17.3 20.5 76.3 1013.8 1.2 W 6.1 W 0.0 137.7
06:40 18.3 17.5 20.8 76.0 1013.8 1.6 W 6.1 W 0.0 100.8
06:45 18.4 17.4 20.9 75.2 1013.9 0.0 NE 3.4 NE 0.0 71.8
06:50 18.4 17.3 20.7 73.7 1014.0 0.6 WNW 3.4 NW 0.0 73.8
06:55 18.6 17.4 20.8 72.2 1014.0 0.7 WNW 3.4 WNW 0.0 202.6
07:00 18.9 17.7 21.4 69.6 1013.9 1.3 WNW 6.1 W 0.0 258.8
07:05 19.3 18.4 22.1 69.1 1014.1 5.8 W 11.5 W 0.0 323.8
07:10 19.6 19.1 23.1 68.2 1014.1 4.9 WNW 8.8 WNW 0.0 336.9
07:15 19.9 19.8 23.9 66.5 1014.4 8.2 W 14.2 W 0.0 351.5
07:20 20.0 20.6 24.4 65.8 1014.5 7.2 W 11.5 WNW 0.0 367.2
07:25 20.2 21.1 24.8 65.9 1014.5 6.9 WNW 11.5 W 0.0 381.0
07:30 20.5 21.7 25.2 64.7 1014.4 8.0 WSW 14.2 W 0.0 393.5
07:35 20.6 22.3 25.6 63.6 1014.3 5.3 WSW 11.5 W 0.0 406.5
07:40 20.8 22.4 25.8 62.2 1014.2 8.4 SSW 14.2 S 0.0 421.6
07:45 20.8 22.9 25.9 60.9 1014.2 7.6 SW 14.2 WSW 0.0 436.2
07:50 21.0 23.2 26.2 60.3 1014.2 7.6 SW 14.2 WSW 0.0 450.9
07:55 21.1 23.6 26.5 59.6 1014.1 5.3 WSW 11.5 W 0.0 464.4
08:00 21.3 24.0 26.9 59.7 1014.1 8.8 W 19.6 WNW 0.0 415.9
08:05 21.4 24.5 27.3 59.2 1014.1 8.4 W 16.9 WNW 0.0 492.0
08:10 21.5 24.9 27.7 58.1 1014.2 7.0 WSW 14.2 SW 0.0 506.8
08:15 21.7 25.2 28.0 57.6 1014.3 8.3 WSW 16.9 WSW 0.0 520.7
08:20 21.5 25.5 28.2 57.5 1014.3 7.7 WSW 16.9 W 0.0 535.4
08:25 21.8 25.6 28.4 57.4 1014.3 6.4 SW 14.2 SW 0.0 552.0
08:30 22.1 25.7 28.5 56.7 1014.3 8.8 S 14.2 SSW 0.0 575.8
08:35 22.0 25.8 28.4 56.5 1014.2 8.7 S 16.9 S 0.0 657.9
08:40 22.1 26.7 28.6 56.6 1014.2 7.2 SW 11.5 SSW 0.0 679.0
08:45 22.4 27.1 29.1 56.1 1014.2 8.2 W 16.9 WNW 0.0 420.5
08:50 22.0 26.8 28.7 57.0 1014.2 9.1 W 19.6 W 0.0 471.0
08:55 22.0 26.7 28.4 56.6 1014.2 7.9 WSW 16.9 SW 0.0 516.4
09:00 22.1 26.8 28.5 56.5 1014.2 6.7 SW 14.2 WSW 0.0 551.6
09:05 22.4 26.9 28.7 55.2 1014.2 3.5 WSW 11.5 NNW 0.0 637.2
09:10 22.7 27.4 29.3 54.5 1014.2 7.6 WSW 16.9 WSW 0.0 678.7
09:15 22.8 27.9 30.0 52.7 1014.2 8.7 SW 16.9 SW 0.0 672.0
09:20 23.1 28.3 30.4 53.2 1014.1 7.6 SW 14.2 SW 0.0 671.8
09:25 23.1 28.6 30.9 51.6 1014.1 7.1 WSW 14.2 W 0.0 682.6
09:30 23.1 28.6 31.2 51.7 1014.2 7.8 SW 16.9 W 0.0 692.8
09:35 23.2 28.7 31.3 52.2 1014.2 8.8 WSW 14.2 WSW 0.0 702.5
09:40 23.5 28.7 31.6 53.5 1014.2 3.6 WNW 8.8 NW 0.0 711.9
09:45 23.7 28.9 31.8 51.2 1014.2 7.7 WSW 16.9 W 0.0 721.0
09:50 23.6 29.2 31.9 52.8 1014.2 6.3 WNW 11.5 WNW 0.0 730.7
09:55 23.7 29.4 32.2 52.5 1014.1 11.4 WNW 19.6 WNW 0.0 738.1
10:00 23.7 29.5 32.5 52.8 1014.2 7.6 WNW 14.2 WNW 0.0 746.6
10:05 24.0 29.9 33.0 51.1 1014.2 7.4 WSW 14.2 WSW 0.0 754.9
10:10 24.0 30.2 33.3 50.0 1014.1 3.8 SSE 16.9 SSE 0.0 764.6
10:15 24.3 30.6 33.5 49.7 1014.0 7.8 SW 14.2 WSW 0.0 771.9
10:20 24.4 30.9 33.7 50.9 1013.9 9.1 W 14.2 WSW 0.0 780.6
10:25 24.6 31.2 34.1 49.4 1013.9 3.2 SW 8.8 WNW 0.0 788.5
10:30 24.7 31.3 34.4 49.9 1013.8 7.0 SW 14.2 SW 0.0 795.1
10:35 24.7 31.5 34.5 48.7 1013.8 7.9 SSW 14.2 S 0.0 801.0
10:40 24.4 31.1 34.3 49.3 1013.8 8.0 SSW 14.2 SSW 0.0 799.3
10:45 24.5 31.5 34.3 49.7 1013.9 4.1 WSW 14.2 SW 0.0 815.0
10:50 24.7 31.7 34.6 50.6 1013.8 9.1 W 16.9 WNW 0.0 818.0
10:55 25.0 32.0 35.0 49.2 1013.8 8.1 SSW 19.6 SSW 0.0 865.0
11:00 24.6 32.1 35.0 48.2 1013.8 6.5 SE 11.5 S 0.0 863.0
11:05 24.7 32.7 35.2 48.1 1013.8 7.6 E 14.2 ENE 0.0 872.0
11:10 25.1 32.9 35.6 47.8 1013.8 6.7 SSE 14.2 S 0.0 890.0
11:15 25.4 33.2 35.7 46.8 1013.8 8.0 S 16.9 S 0.0 904.0
11:20 25.5 34.0 35.9 47.8 1013.8 5.6 SW 14.2 SSW 0.0 1013.0
11:25 25.4 34.7 36.5 46.8 1013.8 5.1 ESE 8.8 SSE 0.0 1064.0
11:30 25.5 35.1 37.1 46.5 1013.7 5.4 ENE 14.2 ENE 0.0 728.2
11:35 25.6 34.7 37.3 46.3 1013.7 6.5 E 11.5 E 0.0 678.0
11:40 25.2 32.5 36.5 46.5 1013.7 5.3 ESE 14.2 SSE 0.0 395.2
11:45 25.5 32.5 35.2 47.1 1013.7 9.1 SSE 14.2 SSE 0.0 1036.0
11:50 25.9 33.0 35.4 46.6 1013.7 7.6 S 14.2 W 0.0 886.0
11:55 25.5 33.9 35.9 46.7 1013.7 4.8 ESE 11.5 ENE 0.0 959.0
12:00 26.4 35.2 36.8 46.2 1013.7 5.5 SSW 16.9 S 0.0 978.0
12:05 26.5 35.0 37.3 45.6 1013.6 4.3 WSW 14.2 SW 0.0 497.2
12:10 25.7 33.1 36.4 45.7 1013.4 5.6 SE 8.8 ESE 0.0 517.7
12:15 25.6 33.8 35.6 46.3 1013.4 1.9 ESE 8.8 SE 0.0 975.0
12:20 26.3 34.8 36.4 47.0 1013.3 8.7 W 19.6 WSW 0.0 955.0
12:25 26.6 35.5 37.5 46.1 1013.2 6.9 W 11.5 WNW 0.0 942.0
12:30 26.7 35.9 38.1 45.5 1013.2 5.2 W 11.5 SSW 0.0 920.0
12:35 26.8 36.5 38.4 45.2 1013.1 5.9 W 16.9 W 0.0 938.0
12:40 26.9 36.3 38.7 45.4 1013.1 4.9 NNW 14.2 NW 0.0 791.9
12:45 26.6 35.0 38.7 44.8 1013.0 2.0 NNE 6.1 N 0.0 446.2
12:50 26.3 32.7 37.5 45.2 1012.9 5.6 SSW 14.2 SW 0.0 440.0
12:55 26.2 32.2 36.3 45.6 1012.9 7.6 SSW 16.9 S 0.0 559.2
13:00 25.9 30.6 35.3 45.8 1012.8 7.2 SW 16.9 S 0.0 320.2
13:05 25.8 30.0 34.4 46.2 1012.8 5.2 WNW 8.8 WSW 0.0 299.5
13:10 25.7 29.3 33.6 46.8 1012.7 2.8 NNE 8.8 NNE 0.0 440.5
13:15 26.0 30.6 33.9 45.6 1012.6 2.2 NNE 8.8 NNE 0.0 875.0
13:20 26.6 32.1 35.1 45.6 1012.6 3.9 W 11.5 W 0.0 763.4
13:25 27.0 33.1 35.9 43.5 1012.6 6.0 WSW 11.5 SSW 0.0 651.2
13:30 27.2 33.0 36.2 44.3 1012.5 6.7 WNW 19.6 WNW 0.0 454.5
13:35 27.2 32.2 35.7 44.5 1012.5 4.0 W 8.8 WNW 0.0 403.4
13:40 27.3 32.0 35.2 43.7 1012.4 2.6 NE 8.8 ESE 0.0 393.2
13:45 27.2 31.5 34.7 42.4 1012.3 4.9 E 14.2 SSW 0.0 399.2
13:50 27.3 31.3 34.3 42.6 1012.2 7.6 SSW 14.2 SW 0.0 533.5
13:55 27.2 31.2 34.1 42.2 1012.1 7.1 SSW 14.2 SW 0.0 418.9
14:00 27.0 31.0 33.8 41.3 1012.0 6.5 SSE 11.5 SSE 0.0 479.6
14:05 26.8 30.5 33.4 40.9 1011.9 3.5 SE 8.8 SSE 0.0 352.4
14:10 26.9 29.9 32.8 41.7 1011.8 6.8 S 16.9 S 0.0 335.4
14:15 26.7 29.2 32.3 41.8 1011.8 8.3 SSE 14.2 S 0.0 306.7
14:20 26.5 28.8 31.7 42.3 1011.8 6.2 SSE 11.5 S 0.0 293.2
14:25 26.6 28.4 31.3 42.0 1011.7 4.6 SSE 8.8 SSE 0.0 300.4
14:30 26.7 28.5 31.1 42.0 1011.6 5.1 S 11.5 S 0.0 353.9
14:35 26.8 28.8 31.2 41.9 1011.6 2.8 WSW 8.8 SW 0.0 272.0
14:40 27.0 28.8 31.2 41.4 1011.6 1.5 SE 8.8 SE 0.0 216.5
14:45 27.0 28.2 31.0 39.3 1011.6 5.3 S 11.5 SW 0.0 171.9
14:50 26.8 27.6 30.4 39.3 1011.6 3.4 SSW 8.8 SSW 0.0 155.0
14:55 26.7 27.1 29.9 40.1 1011.5 6.1 SSE 11.5 S 0.0 139.7
15:00 26.3 26.7 29.4 47.2 1011.6 11.3 SE 22.3 E 0.0 124.9
15:05 25.8 26.1 28.8 49.9 1011.6 13.1 SE 27.7 E 0.0 103.7
15:10 25.3 25.8 28.1 51.5 1011.6 11.7 ESE 22.3 ESE 0.0 91.3
15:15 25.1 25.4 27.7 51.8 1011.6 12.9 ESE 25.0 E 0.0 94.7
15:20 24.9 25.1 27.4 52.9 1011.6 14.3 ESE 22.3 ESE 0.0 93.4
15:25 24.9 24.9 27.2 53.7 1011.6 8.5 E 19.6 ESE 0.0 89.7
15:30 25.0 24.9 27.3 53.8 1011.6 11.4 ESE 22.3 E 0.0 178.5
15:35 25.0 25.2 27.5 54.1 1011.7 11.2 ESE 19.6 E 0.0 166.1
15:40 25.0 25.7 27.6 54.7 1011.7 8.6 ESE 16.9 ESE 0.0 314.5
15:45 25.1 25.9 28.1 54.4 1011.8 8.9 ESE 16.9 E 0.0 157.4
15:50 24.9 25.5 28.0 55.2 1011.8 7.5 SE 14.2 SE 0.0 112.6
15:55 24.8 25.1 27.7 55.5 1011.8 7.7 SE 14.2 SSE 0.0 121.3
16:00 24.8 25.0 27.4 56.2 1011.8 6.8 SE 14.2 SE 0.0 137.4
16:05 24.6 24.9 27.2 57.3 1011.7 7.6 SE 19.6 SE 0.0 90.1
16:10 24.5 24.6 26.9 57.9 1011.9 5.6 ESE 16.9 ESE 0.0 59.2
16:15 24.4 24.4 26.7 58.0 1012.1 7.1 ESE 14.2 SE 0.0 88.2
16:20 24.3 24.5 26.5 58.1 1012.1 7.2 SE 16.9 SE 0.0 125.5
16:25 24.4 24.9 26.7 58.2 1012.1 7.4 ESE 16.9 ESE 0.0 199.8
16:30 24.4 24.9 26.9 58.6 1012.1 8.9 SE 14.2 SE 0.0 104.4
16:35 24.2 24.5 26.7 59.2 1012.1 6.9 SE 14.2 SE 0.0 73.8
16:40 24.1 24.2 26.5 59.7 1012.1 5.4 SE 11.5 ESE 0.0 58.4
16:45 24.1 24.0 26.3 60.1 1012.0 6.1 SE 11.5 SSE 0.0 64.0
16:50 23.9 23.8 26.2 60.5 1012.0 7.3 ESE 16.9 ESE 0.0 37.1
16:55 23.9 23.6 26.0 60.6 1011.9 8.3 ESE 16.9 ENE 0.0 30.2
17:00 23.8 23.5 25.8 60.4 1012.0 9.8 ESE 16.9 ESE 0.0 30.4
17:05 23.7 23.4 25.7 60.8 1012.0 7.8 ESE 16.9 ESE 0.0 40.4
17:10 23.7 23.4 25.6 61.0 1012.1 8.5 ESE 16.9 ESE 0.0 38.2
17:15 23.7 23.4 25.5 61.5 1011.9 9.0 ESE 16.9 ESE 0.0 47.9
17:20 23.6 23.3 25.5 62.1 1011.9 9.1 ESE 16.9 E 0.0 34.1
17:25 23.6 23.2 25.4 62.1 1012.0 7.8 ESE 16.9 ESE 0.0 29.1
17:30 23.5 23.1 25.3 62.1 1012.0 8.9 ESE 19.6 SE 0.0 28.6
17:35 23.5 23.1 25.2 62.5 1012.1 7.5 ESE 14.2 E 0.0 25.3
17:40 23.4 23.0 25.2 62.8 1012.2 7.4 ESE 14.2 ESE 0.0 20.4
17:45 23.3 22.9 25.1 62.9 1012.2 7.0 ESE 16.9 ESE 0.0 15.2
17:50 23.2 22.8 25.0 63.5 1012.2 9.5 SE 16.9 S 0.0 15.0
17:55 23.0 22.6 25.0 66.2 1012.2 7.1 S 11.5 S 0.0 20.5
18:00 22.8 22.5 25.0 68.1 1012.3 3.4 SSW 8.8 SSW 0.0 19.9
18:05 22.8 22.4 24.9 68.2 1012.2 4.6 S 8.8 SSE 0.0 22.3
18:10 22.7 22.1 24.8 68.7 1012.2 6.3 SSW 8.8 SSW 0.0 19.0
18:15 22.6 21.8 24.7 68.9 1012.3 8.0 SSW 14.2 S 0.0 18.3
18:20 22.5 21.6 24.5 69.3 1012.4 6.1 SSW 11.5 SSW 0.0 18.4
18:25 22.5 21.6 24.4 69.6 1012.5 5.1 SSW 11.5 SW 0.0 17.4
18:30 22.4 21.5 24.4 70.3 1012.5 6.8 SSW 11.5 S 0.0 19.0
18:35 22.3 21.3 24.3 71.8 1012.4 8.2 SSW 11.5 SSE 0.0 12.4
18:40 22.1 21.2 24.1 73.6 1012.4 6.7 S 11.5 S 0.0 9.2
18:45 22.0 21.0 24.0 74.5 1012.6 4.6 SW 8.8 SSW 0.0 6.6
18:50 21.9 20.9 24.0 75.2 1012.7 5.8 WSW 11.5 WSW 0.0 5.7
18:55 21.8 20.8 23.9 76.2 1012.6 6.1 SW 11.5 SW 0.0 6.2
19:00 21.6 20.6 23.8 78.2 1012.7 8.6 SW 14.2 WSW 0.0 4.5
19:05 21.4 20.4 23.6 79.8 1012.7 6.4 SW 11.5 SW 0.0 3.3
19:10 21.2 20.1 23.5 80.8 1012.7 7.0 SSW 11.5 SW 0.0 2.0
19:15 21.2 19.9 23.3 80.6 1012.8 5.0 SSW 8.8 SW 0.0 1.1
19:20 21.1 19.8 23.2 81.1 1012.9 5.4 WSW 8.8 SW 0.0 0.4
19:25 21.0 19.8 23.2 81.8 1012.9 3.5 W 8.8 W 0.0 0.2
19:30 21.0 19.9 23.2 81.6 1013.0 3.3 WSW 8.8 SW 0.0 0.1
19:35 21.1 19.9 23.3 80.3 1013.0 6.7 SSW 11.5 SW 0.0 0.1
19:40 21.2 20.0 23.3 79.6 1013.3 2.9 WSW 8.8 W 0.0 0.1
19:45 21.2 20.0 23.3 79.8 1013.4 4.9 WSW 11.5 WSW 0.0 0.1
19:50 21.1 20.1 23.3 79.7 1013.4 3.6 S 8.8 W 0.0 0.1
19:55 21.2 20.1 23.2 79.1 1013.4 4.1 S 8.8 SSE 0.0 0.1
20:00 21.3 20.0 23.1 78.7 1013.6 3.6 SSW 8.8 SSW 0.0 0.1
20:05 21.2 19.9 23.0 78.8 1013.8 3.7 W 8.8 W 0.0 0.1
20:10 21.1 19.9 23.0 79.1 1013.8 3.9 WSW 8.8 W 0.0 0.1
20:15 21.1 19.8 23.0 78.7 1013.9 4.6 SW 11.5 WSW 0.0 0.1
20:20 21.1 19.9 23.0 78.7 1013.9 4.5 SSW 11.5 SSW 0.0 0.1
20:25 21.1 19.9 23.0 78.9 1014.0 3.6 WSW 8.8 SW 0.0 0.1
20:30 21.0 19.9 23.0 79.7 1014.0 0.9 W 6.1 WSW 0.0 0.1
20:35 21.0 19.8 23.0 80.2 1014.1 4.0 WSW 6.1 W 0.0 0.1
20:40 20.9 19.8 23.0 80.6 1014.2 2.1 W 6.1 W 0.0 0.1
20:45 20.9 19.8 23.0 81.0 1014.2 0.4 W 3.4 WNW 0.0 0.1
20:50 20.9 19.8 23.0 80.9 1014.2 0.9 SSW 3.4 SSW 0.0 0.1
20:55 20.9 19.9 23.0 80.8 1014.2 1.6 SSW 6.1 SSW 0.0 0.1
21:00 21.0 19.9 23.0 80.8 1014.2 1.9 WNW 6.1 WSW 0.0 0.1
21:05 20.9 19.9 23.0 81.3 1014.3 1.3 WNW 6.1 NW 0.0 0.1
21:10 20.9 20.0 23.0 81.0 1014.4 0.0 NNE 0.0 NNW 0.0 0.1
Màxima 27.4 36.5 38.7 82.7 1014.5 14.3 ESE 27.7 E 0.1 1064.0
Mínima 17.8 15.8 19.7 39.3 1011.5
Total 0.1